sensor_id;sensor_type;location;lat;lon;timestamp;P1;durP1;ratioP1;P2;durP2;ratioP2
54919;SDS011;63804;53.120;8.764;2023-05-19T00:01:22;11.50;;;4.63;;
54919;SDS011;63804;53.120;8.764;2023-05-19T00:03:55;10.35;;;4.10;;
54919;SDS011;63804;53.120;8.764;2023-05-19T00:06:25;10.48;;;4.53;;
54919;SDS011;63804;53.120;8.764;2023-05-19T00:08:56;14.52;;;5.07;;
54919;SDS011;63804;53.120;8.764;2023-05-19T00:11:30;11.20;;;4.93;;
54919;SDS011;63804;53.120;8.764;2023-05-19T00:13:58;11.88;;;5.00;;
54919;SDS011;63804;53.120;8.764;2023-05-19T00:16:26;11.25;;;4.57;;
54919;SDS011;63804;53.120;8.764;2023-05-19T00:18:58;12.20;;;4.90;;
54919;SDS011;63804;53.120;8.764;2023-05-19T00:21:26;11.90;;;4.78;;
54919;SDS011;63804;53.120;8.764;2023-05-19T00:23:54;10.60;;;4.75;;
54919;SDS011;63804;53.120;8.764;2023-05-19T00:26:22;13.30;;;4.72;;
54919;SDS011;63804;53.120;8.764;2023-05-19T00:28:49;12.40;;;4.70;;
54919;SDS011;63804;53.120;8.764;2023-05-19T00:31:17;12.25;;;5.25;;
54919;SDS011;63804;53.120;8.764;2023-05-19T00:33:44;11.43;;;4.75;;
54919;SDS011;63804;53.120;8.764;2023-05-19T00:36:11;10.05;;;4.60;;
54919;SDS011;63804;53.120;8.764;2023-05-19T00:38:39;9.60;;;4.88;;
54919;SDS011;63804;53.120;8.764;2023-05-19T00:41:06;12.38;;;5.28;;
54919;SDS011;63804;53.120;8.764;2023-05-19T00:43:33;12.68;;;4.88;;
54919;SDS011;63804;53.120;8.764;2023-05-19T00:46:00;12.43;;;4.53;;
54919;SDS011;63804;53.120;8.764;2023-05-19T00:48:28;10.07;;;5.50;;
54919;SDS011;63804;53.120;8.764;2023-05-19T00:50:55;11.25;;;5.60;;
54919;SDS011;63804;53.120;8.764;2023-05-19T00:53:28;12.02;;;5.45;;
54919;SDS011;63804;53.120;8.764;2023-05-19T00:55:56;9.43;;;4.88;;
54919;SDS011;63804;53.120;8.764;2023-05-19T00:58:24;11.30;;;5.47;;
54919;SDS011;63804;53.120;8.764;2023-05-19T01:00:55;11.85;;;5.07;;
54919;SDS011;63804;53.120;8.764;2023-05-19T01:03:33;10.82;;;4.78;;
54919;SDS011;63804;53.120;8.764;2023-05-19T01:06:02;12.75;;;5.35;;
54919;SDS011;63804;53.120;8.764;2023-05-19T01:08:34;9.30;;;4.75;;
54919;SDS011;63804;53.120;8.764;2023-05-19T01:11:06;12.65;;;5.05;;
54919;SDS011;63804;53.120;8.764;2023-05-19T01:13:34;11.88;;;5.15;;
54919;SDS011;63804;53.120;8.764;2023-05-19T01:16:04;10.75;;;4.78;;
54919;SDS011;63804;53.120;8.764;2023-05-19T01:32:49;13.05;;;5.57;;
54919;SDS011;63804;53.120;8.764;2023-05-19T01:35:22;10.73;;;5.45;;
54919;SDS011;63804;53.120;8.764;2023-05-19T01:37:51;10.05;;;5.50;;
54919;SDS011;63804;53.120;8.764;2023-05-19T01:40:22;12.82;;;6.03;;
54919;SDS011;63804;53.120;8.764;2023-05-19T01:42:51;11.15;;;5.57;;
54919;SDS011;63804;53.120;8.764;2023-05-19T01:45:22;11.68;;;5.50;;
54919;SDS011;63804;53.120;8.764;2023-05-19T01:47:55;11.35;;;5.75;;
54919;SDS011;63804;53.120;8.764;2023-05-19T01:50:24;13.63;;;6.10;;
54919;SDS011;63804;53.120;8.764;2023-05-19T01:52:51;11.43;;;6.10;;
54919;SDS011;63804;53.120;8.764;2023-05-19T01:55:19;11.82;;;5.70;;
54919;SDS011;63804;53.120;8.764;2023-05-19T02:07:25;12.48;;;5.80;;
54919;SDS011;63804;53.120;8.764;2023-05-19T02:09:59;12.30;;;5.88;;
54919;SDS011;63804;53.120;8.764;2023-05-19T02:12:38;12.25;;;5.63;;
54919;SDS011;63804;53.120;8.764;2023-05-19T02:17:37;11.38;;;5.43;;
54919;SDS011;63804;53.120;8.764;2023-05-19T02:20:07;12.40;;;5.40;;
54919;SDS011;63804;53.120;8.764;2023-05-19T02:22:35;12.23;;;5.68;;
54919;SDS011;63804;53.120;8.764;2023-05-19T02:25:02;15.60;;;5.90;;
54919;SDS011;63804;53.120;8.764;2023-05-19T02:27:30;11.82;;;5.85;;
54919;SDS011;63804;53.120;8.764;2023-05-19T02:29:57;9.88;;;5.57;;
54919;SDS011;63804;53.120;8.764;2023-05-19T02:32:24;11.43;;;5.88;;
54919;SDS011;63804;53.120;8.764;2023-05-19T02:34:51;13.70;;;5.90;;
54919;SDS011;63804;53.120;8.764;2023-05-19T02:37:18;13.07;;;5.50;;
54919;SDS011;63804;53.120;8.764;2023-05-19T02:39:49;11.75;;;5.75;;
54919;SDS011;63804;53.120;8.764;2023-05-19T02:42:16;10.32;;;5.53;;
54919;SDS011;63804;53.120;8.764;2023-05-19T02:44:44;13.10;;;6.28;;
54919;SDS011;63804;53.120;8.764;2023-05-19T02:47:11;9.52;;;5.50;;
54919;SDS011;63804;53.120;8.764;2023-05-19T02:49:39;10.32;;;5.32;;
54919;SDS011;63804;53.120;8.764;2023-05-19T02:52:06;11.00;;;5.68;;
54919;SDS011;63804;53.120;8.764;2023-05-19T02:54:33;12.63;;;5.53;;
54919;SDS011;63804;53.120;8.764;2023-05-19T02:57:01;13.35;;;6.20;;
54919;SDS011;63804;53.120;8.764;2023-05-19T02:59:28;11.25;;;6.20;;
54919;SDS011;63804;53.120;8.764;2023-05-19T03:01:57;12.93;;;5.85;;
54919;SDS011;63804;53.120;8.764;2023-05-19T03:04:26;10.85;;;6.13;;
54919;SDS011;63804;53.120;8.764;2023-05-19T03:06:53;11.50;;;5.60;;
54919;SDS011;63804;53.120;8.764;2023-05-19T03:09:21;12.25;;;5.90;;
54919;SDS011;63804;53.120;8.764;2023-05-19T03:11:48;11.95;;;5.40;;
54919;SDS011;63804;53.120;8.764;2023-05-19T03:14:15;14.05;;;6.10;;
54919;SDS011;63804;53.120;8.764;2023-05-19T03:16:42;12.57;;;6.57;;
54919;SDS011;63804;53.120;8.764;2023-05-19T03:19:09;13.95;;;6.25;;
54919;SDS011;63804;53.120;8.764;2023-05-19T03:21:36;12.43;;;5.72;;
54919;SDS011;63804;53.120;8.764;2023-05-19T03:24:03;10.88;;;5.20;;
54919;SDS011;63804;53.120;8.764;2023-05-19T03:26:31;10.80;;;6.47;;
54919;SDS011;63804;53.120;8.764;2023-05-19T03:28:58;14.05;;;5.82;;
54919;SDS011;63804;53.120;8.764;2023-05-19T03:31:25;11.75;;;6.05;;
54919;SDS011;63804;53.120;8.764;2023-05-19T03:33:52;12.55;;;6.20;;
54919;SDS011;63804;53.120;8.764;2023-05-19T03:36:19;10.25;;;5.78;;
54919;SDS011;63804;53.120;8.764;2023-05-19T03:38:47;10.70;;;5.72;;
54919;SDS011;63804;53.120;8.764;2023-05-19T03:41:14;12.65;;;6.50;;
54919;SDS011;63804;53.120;8.764;2023-05-19T03:43:42;11.43;;;6.20;;
54919;SDS011;63804;53.120;8.764;2023-05-19T03:46:09;11.82;;;6.00;;
54919;SDS011;63804;53.120;8.764;2023-05-19T03:48:36;11.23;;;6.40;;
54919;SDS011;63804;53.120;8.764;2023-05-19T03:51:03;12.93;;;6.20;;
54919;SDS011;63804;53.120;8.764;2023-05-19T03:53:30;12.32;;;6.40;;
54919;SDS011;63804;53.120;8.764;2023-05-19T03:55:57;10.10;;;6.05;;
54919;SDS011;63804;53.120;8.764;2023-05-19T03:58:25;12.23;;;6.22;;
54919;SDS011;63804;53.120;8.764;2023-05-19T04:00:52;11.10;;;6.60;;
54919;SDS011;63804;53.120;8.764;2023-05-19T04:03:19;14.15;;;6.03;;
54919;SDS011;63804;53.120;8.764;2023-05-19T04:05:46;12.30;;;5.97;;
54919;SDS011;63804;53.120;8.764;2023-05-19T04:08:13;11.77;;;5.93;;
54919;SDS011;63804;53.120;8.764;2023-05-19T04:10:41;11.10;;;6.35;;
54919;SDS011;63804;53.120;8.764;2023-05-19T04:13:08;12.38;;;6.53;;
54919;SDS011;63804;53.120;8.764;2023-05-19T04:15:35;12.93;;;6.70;;
54919;SDS011;63804;53.120;8.764;2023-05-19T04:18:02;10.88;;;5.97;;
54919;SDS011;63804;53.120;8.764;2023-05-19T04:20:29;13.13;;;6.95;;
54919;SDS011;63804;53.120;8.764;2023-05-19T04:22:57;13.30;;;6.25;;
54919;SDS011;63804;53.120;8.764;2023-05-19T04:25:24;12.35;;;6.53;;
54919;SDS011;63804;53.120;8.764;2023-05-19T04:27:51;13.88;;;6.50;;
54919;SDS011;63804;53.120;8.764;2023-05-19T04:30:18;13.93;;;6.50;;
54919;SDS011;63804;53.120;8.764;2023-05-19T04:32:48;14.00;;;6.80;;
54919;SDS011;63804;53.120;8.764;2023-05-19T04:35:16;13.43;;;7.60;;
54919;SDS011;63804;53.120;8.764;2023-05-19T04:37:43;12.73;;;7.75;;
54919;SDS011;63804;53.120;8.764;2023-05-19T04:40:14;14.77;;;9.27;;
54919;SDS011;63804;53.120;8.764;2023-05-19T04:42:41;14.73;;;8.88;;
54919;SDS011;63804;53.120;8.764;2023-05-19T04:45:11;13.35;;;7.93;;
54919;SDS011;63804;53.120;8.764;2023-05-19T04:47:40;12.82;;;7.78;;
54919;SDS011;63804;53.120;8.764;2023-05-19T04:50:07;12.88;;;7.00;;
54919;SDS011;63804;53.120;8.764;2023-05-19T04:52:36;13.93;;;6.38;;
54919;SDS011;63804;53.120;8.764;2023-05-19T04:55:03;11.65;;;6.28;;
54919;SDS011;63804;53.120;8.764;2023-05-19T04:57:31;13.32;;;7.10;;
54919;SDS011;63804;53.120;8.764;2023-05-19T04:59:58;12.93;;;6.53;;
54919;SDS011;63804;53.120;8.764;2023-05-19T05:02:28;10.65;;;6.18;;
54919;SDS011;63804;53.120;8.764;2023-05-19T05:04:55;13.20;;;6.88;;
54919;SDS011;63804;53.120;8.764;2023-05-19T05:07:22;12.65;;;6.53;;
54919;SDS011;63804;53.120;8.764;2023-05-19T05:09:49;12.00;;;6.70;;
54919;SDS011;63804;53.120;8.764;2023-05-19T05:12:17;12.18;;;7.25;;
54919;SDS011;63804;53.120;8.764;2023-05-19T05:14:44;12.27;;;6.88;;
54919;SDS011;63804;53.120;8.764;2023-05-19T05:17:12;11.70;;;6.95;;
54919;SDS011;63804;53.120;8.764;2023-05-19T05:19:39;14.25;;;6.80;;
54919;SDS011;63804;53.120;8.764;2023-05-19T05:22:07;12.57;;;7.07;;
54919;SDS011;63804;53.120;8.764;2023-05-19T05:24:34;13.45;;;6.32;;
54919;SDS011;63804;53.120;8.764;2023-05-19T05:27:02;12.75;;;6.97;;
54919;SDS011;63804;53.120;8.764;2023-05-19T05:29:29;13.30;;;6.55;;
54919;SDS011;63804;53.120;8.764;2023-05-19T05:31:56;13.48;;;6.95;;
54919;SDS011;63804;53.120;8.764;2023-05-19T05:34:23;14.45;;;6.95;;
54919;SDS011;63804;53.120;8.764;2023-05-19T05:36:51;14.52;;;6.68;;
54919;SDS011;63804;53.120;8.764;2023-05-19T05:39:18;13.20;;;6.55;;
54919;SDS011;63804;53.120;8.764;2023-05-19T05:41:45;11.50;;;6.55;;
54919;SDS011;63804;53.120;8.764;2023-05-19T05:44:12;11.88;;;6.20;;
54919;SDS011;63804;53.120;8.764;2023-05-19T05:46:40;14.10;;;7.03;;
54919;SDS011;63804;53.120;8.764;2023-05-19T05:49:07;11.90;;;6.13;;
54919;SDS011;63804;53.120;8.764;2023-05-19T05:51:34;11.88;;;6.45;;
54919;SDS011;63804;53.120;8.764;2023-05-19T05:54:02;10.25;;;5.93;;
54919;SDS011;63804;53.120;8.764;2023-05-19T05:56:32;12.57;;;5.60;;
54919;SDS011;63804;53.120;8.764;2023-05-19T05:59:00;13.32;;;6.50;;
54919;SDS011;63804;53.120;8.764;2023-05-19T06:01:27;12.18;;;5.57;;
54919;SDS011;63804;53.120;8.764;2023-05-19T06:03:59;13.88;;;5.78;;
54919;SDS011;63804;53.120;8.764;2023-05-19T06:06:26;11.13;;;5.47;;
54919;SDS011;63804;53.120;8.764;2023-05-19T06:08:53;13.75;;;6.30;;
54919;SDS011;63804;53.120;8.764;2023-05-19T06:11:20;11.15;;;5.68;;
54919;SDS011;63804;53.120;8.764;2023-05-19T06:13:47;13.25;;;5.57;;
54919;SDS011;63804;53.120;8.764;2023-05-19T06:16:14;12.77;;;6.25;;
54919;SDS011;63804;53.120;8.764;2023-05-19T06:18:42;13.73;;;6.05;;
54919;SDS011;63804;53.120;8.764;2023-05-19T06:21:09;10.85;;;5.82;;
54919;SDS011;63804;53.120;8.764;2023-05-19T06:23:39;11.25;;;5.47;;
54919;SDS011;63804;53.120;8.764;2023-05-19T06:26:06;11.68;;;5.63;;
54919;SDS011;63804;53.120;8.764;2023-05-19T06:28:33;11.82;;;5.80;;
54919;SDS011;63804;53.120;8.764;2023-05-19T06:31:00;12.57;;;5.90;;
54919;SDS011;63804;53.120;8.764;2023-05-19T06:33:28;11.93;;;5.60;;
54919;SDS011;63804;53.120;8.764;2023-05-19T06:35:55;13.85;;;5.47;;
54919;SDS011;63804;53.120;8.764;2023-05-19T06:38:22;13.35;;;5.68;;
54919;SDS011;63804;53.120;8.764;2023-05-19T06:40:49;12.13;;;6.18;;
54919;SDS011;63804;53.120;8.764;2023-05-19T06:43:16;13.98;;;5.80;;
54919;SDS011;63804;53.120;8.764;2023-05-19T06:45:43;12.43;;;5.53;;
54919;SDS011;63804;53.120;8.764;2023-05-19T06:48:10;14.57;;;5.88;;
54919;SDS011;63804;53.120;8.764;2023-05-19T06:50:37;12.38;;;5.97;;
54919;SDS011;63804;53.120;8.764;2023-05-19T06:53:04;11.23;;;5.53;;
54919;SDS011;63804;53.120;8.764;2023-05-19T06:55:31;12.70;;;5.40;;
54919;SDS011;63804;53.120;8.764;2023-05-19T06:58:02;14.20;;;5.75;;
54919;SDS011;63804;53.120;8.764;2023-05-19T07:00:29;12.00;;;5.85;;
54919;SDS011;63804;53.120;8.764;2023-05-19T07:02:56;11.85;;;5.38;;
54919;SDS011;63804;53.120;8.764;2023-05-19T07:05:24;11.00;;;5.65;;
54919;SDS011;63804;53.120;8.764;2023-05-19T07:07:51;11.82;;;6.38;;
54919;SDS011;63804;53.120;8.764;2023-05-19T07:10:18;10.35;;;5.88;;
54919;SDS011;63804;53.120;8.764;2023-05-19T07:12:47;12.52;;;6.22;;
54919;SDS011;63804;53.120;8.764;2023-05-19T07:15:14;11.90;;;5.82;;
54919;SDS011;63804;53.120;8.764;2023-05-19T07:17:41;13.70;;;5.40;;
54919;SDS011;63804;53.120;8.764;2023-05-19T07:20:08;13.18;;;5.70;;
54919;SDS011;63804;53.120;8.764;2023-05-19T07:22:36;13.70;;;5.38;;
54919;SDS011;63804;53.120;8.764;2023-05-19T07:25:04;12.82;;;6.03;;
54919;SDS011;63804;53.120;8.764;2023-05-19T07:27:32;11.82;;;5.47;;
54919;SDS011;63804;53.120;8.764;2023-05-19T07:30:00;12.38;;;5.13;;
54919;SDS011;63804;53.120;8.764;2023-05-19T07:32:27;11.35;;;5.32;;
54919;SDS011;63804;53.120;8.764;2023-05-19T07:34:54;14.00;;;5.47;;
54919;SDS011;63804;53.120;8.764;2023-05-19T07:37:21;11.40;;;5.45;;
54919;SDS011;63804;53.120;8.764;2023-05-19T07:39:48;12.00;;;5.72;;
54919;SDS011;63804;53.120;8.764;2023-05-19T07:42:15;13.70;;;5.40;;
54919;SDS011;63804;53.120;8.764;2023-05-19T07:44:42;12.27;;;5.43;;
54919;SDS011;63804;53.120;8.764;2023-05-19T07:47:09;12.55;;;5.15;;
54919;SDS011;63804;53.120;8.764;2023-05-19T07:49:36;10.18;;;4.93;;
54919;SDS011;63804;53.120;8.764;2023-05-19T07:52:03;13.00;;;4.72;;
54919;SDS011;63804;53.120;8.764;2023-05-19T07:54:31;16.92;;;5.15;;
54919;SDS011;63804;53.120;8.764;2023-05-19T07:56:58;11.05;;;4.38;;
54919;SDS011;63804;53.120;8.764;2023-05-19T07:59:25;11.43;;;4.43;;
54919;SDS011;63804;53.120;8.764;2023-05-19T08:01:52;11.20;;;4.05;;
54919;SDS011;63804;53.120;8.764;2023-05-19T08:04:19;13.40;;;4.40;;
54919;SDS011;63804;53.120;8.764;2023-05-19T08:06:46;11.10;;;4.20;;
54919;SDS011;63804;53.120;8.764;2023-05-19T08:09:13;9.73;;;3.53;;
54919;SDS011;63804;53.120;8.764;2023-05-19T08:11:40;8.82;;;3.95;;
54919;SDS011;63804;53.120;8.764;2023-05-19T08:14:07;10.95;;;3.83;;
54919;SDS011;63804;53.120;8.764;2023-05-19T08:16:34;11.10;;;3.80;;
54919;SDS011;63804;53.120;8.764;2023-05-19T08:19:02;10.65;;;3.92;;
54919;SDS011;63804;53.120;8.764;2023-05-19T08:21:31;12.23;;;4.43;;
54919;SDS011;63804;53.120;8.764;2023-05-19T08:24:01;11.52;;;4.40;;
54919;SDS011;63804;53.120;8.764;2023-05-19T08:26:28;11.90;;;4.40;;
54919;SDS011;63804;53.120;8.764;2023-05-19T08:28:55;14.18;;;4.50;;
54919;SDS011;63804;53.120;8.764;2023-05-19T08:31:22;12.02;;;3.78;;
54919;SDS011;63804;53.120;8.764;2023-05-19T08:33:50;10.07;;;3.92;;
54919;SDS011;63804;53.120;8.764;2023-05-19T08:36:18;9.30;;;3.58;;
54919;SDS011;63804;53.120;8.764;2023-05-19T08:38:45;13.13;;;4.20;;
54919;SDS011;63804;53.120;8.764;2023-05-19T08:41:12;12.63;;;3.60;;
54919;SDS011;63804;53.120;8.764;2023-05-19T08:43:39;11.20;;;3.50;;
54919;SDS011;63804;53.120;8.764;2023-05-19T08:46:06;8.02;;;3.22;;
54919;SDS011;63804;53.120;8.764;2023-05-19T08:48:36;7.95;;;3.00;;
54919;SDS011;63804;53.120;8.764;2023-05-19T08:51:19;9.80;;;3.00;;
54919;SDS011;63804;53.120;8.764;2023-05-19T08:53:52;8.18;;;3.13;;
54919;SDS011;63804;53.120;8.764;2023-05-19T08:56:23;7.78;;;3.20;;
54919;SDS011;63804;53.120;8.764;2023-05-19T08:58:52;10.38;;;3.67;;
54919;SDS011;63804;53.120;8.764;2023-05-19T09:01:20;11.90;;;3.88;;
54919;SDS011;63804;53.120;8.764;2023-05-19T09:03:48;11.10;;;3.58;;
54919;SDS011;63804;53.120;8.764;2023-05-19T09:06:16;12.75;;;4.70;;
54919;SDS011;63804;53.120;8.764;2023-05-19T09:08:43;10.15;;;3.75;;
54919;SDS011;63804;53.120;8.764;2023-05-19T09:11:10;11.15;;;4.30;;
54919;SDS011;63804;53.120;8.764;2023-05-19T09:13:37;11.57;;;3.90;;
54919;SDS011;63804;53.120;8.764;2023-05-19T09:16:05;10.77;;;3.45;;
54919;SDS011;63804;53.120;8.764;2023-05-19T09:18:32;8.30;;;3.00;;
54919;SDS011;63804;53.120;8.764;2023-05-19T09:21:00;9.40;;;3.03;;
54919;SDS011;63804;53.120;8.764;2023-05-19T09:23:31;11.45;;;2.85;;
54919;SDS011;63804;53.120;8.764;2023-05-19T09:26:02;9.57;;;3.03;;
54919;SDS011;63804;53.120;8.764;2023-05-19T09:28:34;8.40;;;2.92;;
54919;SDS011;63804;53.120;8.764;2023-05-19T09:31:03;9.23;;;3.55;;
54919;SDS011;63804;53.120;8.764;2023-05-19T09:33:36;10.07;;;3.83;;
54919;SDS011;63804;53.120;8.764;2023-05-19T09:36:05;8.20;;;2.60;;
54919;SDS011;63804;53.120;8.764;2023-05-19T09:38:34;7.55;;;2.55;;
54919;SDS011;63804;53.120;8.764;2023-05-19T09:41:02;7.72;;;2.00;;
54919;SDS011;63804;53.120;8.764;2023-05-19T09:43:30;9.25;;;2.47;;
54919;SDS011;63804;53.120;8.764;2023-05-19T09:46:05;8.15;;;2.30;;
54919;SDS011;63804;53.120;8.764;2023-05-19T09:48:33;8.73;;;2.35;;
54919;SDS011;63804;53.120;8.764;2023-05-19T09:51:02;7.88;;;2.60;;
54919;SDS011;63804;53.120;8.764;2023-05-19T09:53:33;8.10;;;1.90;;
54919;SDS011;63804;53.120;8.764;2023-05-19T09:56:01;5.43;;;2.05;;
54919;SDS011;63804;53.120;8.764;2023-05-19T09:58:32;8.82;;;2.10;;
54919;SDS011;63804;53.120;8.764;2023-05-19T10:01:01;8.38;;;2.83;;
54919;SDS011;63804;53.120;8.764;2023-05-19T10:03:30;8.50;;;2.20;;
54919;SDS011;63804;53.120;8.764;2023-05-19T10:05:59;10.07;;;2.80;;
54919;SDS011;63804;53.120;8.764;2023-05-19T10:08:27;8.02;;;2.40;;
54919;SDS011;63804;53.120;8.764;2023-05-19T10:10:56;5.43;;;1.80;;
54919;SDS011;63804;53.120;8.764;2023-05-19T10:13:24;4.72;;;1.77;;
54919;SDS011;63804;53.120;8.764;2023-05-19T10:15:51;8.05;;;2.17;;
54919;SDS011;63804;53.120;8.764;2023-05-19T10:18:24;7.57;;;2.13;;
54919;SDS011;63804;53.120;8.764;2023-05-19T10:20:52;7.43;;;1.80;;
54919;SDS011;63804;53.120;8.764;2023-05-19T10:23:20;5.18;;;1.88;;
54919;SDS011;63804;53.120;8.764;2023-05-19T10:25:48;6.25;;;1.80;;
54919;SDS011;63804;53.120;8.764;2023-05-19T10:28:18;7.10;;;1.73;;
54919;SDS011;63804;53.120;8.764;2023-05-19T10:30:52;6.53;;;2.00;;
54919;SDS011;63804;53.120;8.764;2023-05-19T10:33:24;5.18;;;1.67;;
54919;SDS011;63804;53.120;8.764;2023-05-19T10:36:08;8.32;;;1.70;;
54919;SDS011;63804;53.120;8.764;2023-05-19T10:38:41;7.70;;;1.85;;
54919;SDS011;63804;53.120;8.764;2023-05-19T10:41:21;9.52;;;2.08;;
54919;SDS011;63804;53.120;8.764;2023-05-19T10:44:06;14.80;;;2.88;;
54919;SDS011;63804;53.120;8.764;2023-05-19T10:46:41;13.40;;;2.55;;
54919;SDS011;63804;53.120;8.764;2023-05-19T10:49:09;9.25;;;2.60;;
54919;SDS011;63804;53.120;8.764;2023-05-19T10:51:36;24.60;;;3.55;;
54919;SDS011;63804;53.120;8.764;2023-05-19T10:54:06;10.48;;;2.38;;
54919;SDS011;63804;53.120;8.764;2023-05-19T10:56:40;6.20;;;2.00;;
54919;SDS011;63804;53.120;8.764;2023-05-19T10:59:30;5.78;;;1.80;;
54919;SDS011;63804;53.120;8.764;2023-05-19T11:02:04;8.02;;;1.88;;
54919;SDS011;63804;53.120;8.764;2023-05-19T11:04:46;9.80;;;2.15;;
54919;SDS011;63804;53.120;8.764;2023-05-19T11:09:49;9.88;;;1.98;;
54919;SDS011;63804;53.120;8.764;2023-05-19T11:12:20;7.63;;;2.00;;
54919;SDS011;63804;53.120;8.764;2023-05-19T11:14:53;5.57;;;1.67;;
54919;SDS011;63804;53.120;8.764;2023-05-19T11:17:23;4.70;;;2.00;;
54919;SDS011;63804;53.120;8.764;2023-05-19T11:19:52;7.88;;;2.13;;
54919;SDS011;63804;53.120;8.764;2023-05-19T11:22:21;8.63;;;2.10;;
54919;SDS011;63804;53.120;8.764;2023-05-19T11:24:54;7.63;;;2.05;;
54919;SDS011;63804;53.120;8.764;2023-05-19T11:27:28;9.65;;;1.73;;
54919;SDS011;63804;53.120;8.764;2023-05-19T11:30:01;5.40;;;1.38;;
54919;SDS011;63804;53.120;8.764;2023-05-19T11:32:40;7.68;;;1.95;;
54919;SDS011;63804;53.120;8.764;2023-05-19T11:35:10;6.88;;;1.75;;
54919;SDS011;63804;53.120;8.764;2023-05-19T11:37:38;6.95;;;2.13;;
54919;SDS011;63804;53.120;8.764;2023-05-19T11:40:07;7.03;;;2.10;;
54919;SDS011;63804;53.120;8.764;2023-05-19T11:42:35;7.45;;;1.73;;
54919;SDS011;63804;53.120;8.764;2023-05-19T11:45:03;12.18;;;2.10;;
54919;SDS011;63804;53.120;8.764;2023-05-19T11:47:30;5.72;;;1.83;;
54919;SDS011;63804;53.120;8.764;2023-05-19T11:50:21;5.30;;;1.75;;
54919;SDS011;63804;53.120;8.764;2023-05-19T11:52:49;4.70;;;1.80;;
54919;SDS011;63804;53.120;8.764;2023-05-19T11:55:19;6.28;;;1.80;;
54919;SDS011;63804;53.120;8.764;2023-05-19T11:57:57;4.43;;;1.50;;
54919;SDS011;63804;53.120;8.764;2023-05-19T12:00:28;7.30;;;1.65;;
54919;SDS011;63804;53.120;8.764;2023-05-19T12:02:56;13.23;;;2.30;;
54919;SDS011;63804;53.120;8.764;2023-05-19T12:05:24;11.73;;;2.33;;
54919;SDS011;63804;53.120;8.764;2023-05-19T12:07:52;42.30;;;4.68;;
54919;SDS011;63804;53.120;8.764;2023-05-19T12:10:26;8.65;;;2.08;;
54919;SDS011;63804;53.120;8.764;2023-05-19T12:12:56;5.80;;;1.70;;
54919;SDS011;63804;53.120;8.764;2023-05-19T12:15:26;5.88;;;1.58;;
54919;SDS011;63804;53.120;8.764;2023-05-19T12:17:57;9.85;;;1.95;;
54919;SDS011;63804;53.120;8.764;2023-05-19T12:20:27;6.40;;;1.85;;
54919;SDS011;63804;53.120;8.764;2023-05-19T12:22:57;5.72;;;1.65;;
54919;SDS011;63804;53.120;8.764;2023-05-19T12:25:25;5.25;;;1.63;;
54919;SDS011;63804;53.120;8.764;2023-05-19T12:27:57;5.13;;;1.80;;
54919;SDS011;63804;53.120;8.764;2023-05-19T12:30:26;5.45;;;1.58;;
54919;SDS011;63804;53.120;8.764;2023-05-19T12:32:55;5.75;;;1.60;;
54919;SDS011;63804;53.120;8.764;2023-05-19T12:35:27;5.47;;;1.73;;
54919;SDS011;63804;53.120;8.764;2023-05-19T12:37:55;7.07;;;2.20;;
54919;SDS011;63804;53.120;8.764;2023-05-19T12:40:23;5.60;;;1.83;;
54919;SDS011;63804;53.120;8.764;2023-05-19T12:42:54;5.70;;;1.65;;
54919;SDS011;63804;53.120;8.764;2023-05-19T12:45:25;7.95;;;1.63;;
54919;SDS011;63804;53.120;8.764;2023-05-19T12:47:54;5.90;;;1.92;;
54919;SDS011;63804;53.120;8.764;2023-05-19T12:50:31;4.70;;;1.60;;
54919;SDS011;63804;53.120;8.764;2023-05-19T12:53:00;7.60;;;1.83;;
54919;SDS011;63804;53.120;8.764;2023-05-19T12:55:28;5.20;;;1.50;;
54919;SDS011;63804;53.120;8.764;2023-05-19T12:57:56;4.60;;;1.58;;
54919;SDS011;63804;53.120;8.764;2023-05-19T13:00:24;8.57;;;2.20;;
54919;SDS011;63804;53.120;8.764;2023-05-19T13:03:01;5.13;;;1.50;;
54919;SDS011;63804;53.120;8.764;2023-05-19T13:05:31;33.28;;;5.40;;
54919;SDS011;63804;53.120;8.764;2023-05-19T13:08:09;7.43;;;1.67;;
54919;SDS011;63804;53.120;8.764;2023-05-19T13:10:39;6.35;;;1.60;;
54919;SDS011;63804;53.120;8.764;2023-05-19T13:13:07;14.63;;;3.83;;
54919;SDS011;63804;53.120;8.764;2023-05-19T13:15:41;6.93;;;1.65;;
54919;SDS011;63804;53.120;8.764;2023-05-19T13:18:10;7.85;;;1.70;;
54919;SDS011;63804;53.120;8.764;2023-05-19T13:20:39;4.82;;;1.65;;
54919;SDS011;63804;53.120;8.764;2023-05-19T13:23:10;7.13;;;1.95;;
54919;SDS011;63804;53.120;8.764;2023-05-19T13:25:39;8.07;;;1.58;;
54919;SDS011;63804;53.120;8.764;2023-05-19T13:28:07;6.68;;;1.55;;
54919;SDS011;63804;53.120;8.764;2023-05-19T13:30:35;5.22;;;1.65;;
54919;SDS011;63804;53.120;8.764;2023-05-19T13:33:05;6.50;;;1.50;;
54919;SDS011;63804;53.120;8.764;2023-05-19T13:35:32;7.55;;;2.30;;
54919;SDS011;63804;53.120;8.764;2023-05-19T13:38:03;8.80;;;2.38;;
54919;SDS011;63804;53.120;8.764;2023-05-19T13:40:37;4.00;;;1.52;;
54919;SDS011;63804;53.120;8.764;2023-05-19T13:43:05;9.63;;;2.53;;
54919;SDS011;63804;53.120;8.764;2023-05-19T13:45:34;6.03;;;1.80;;
54919;SDS011;63804;53.120;8.764;2023-05-19T13:48:01;6.95;;;1.80;;
54919;SDS011;63804;53.120;8.764;2023-05-19T13:50:29;5.60;;;1.65;;
54919;SDS011;63804;53.120;8.764;2023-05-19T13:52:56;5.43;;;1.67;;
54919;SDS011;63804;53.120;8.764;2023-05-19T13:55:23;20.70;;;2.78;;
54919;SDS011;63804;53.120;8.764;2023-05-19T13:57:52;10.88;;;2.35;;
54919;SDS011;63804;53.120;8.764;2023-05-19T14:00:19;6.30;;;1.67;;
54919;SDS011;63804;53.120;8.764;2023-05-19T14:02:47;5.63;;;1.80;;
54919;SDS011;63804;53.120;8.764;2023-05-19T14:05:14;4.30;;;1.63;;
54919;SDS011;63804;53.120;8.764;2023-05-19T14:07:41;4.05;;;1.75;;
54919;SDS011;63804;53.120;8.764;2023-05-19T14:10:08;5.22;;;1.70;;
54919;SDS011;63804;53.120;8.764;2023-05-19T14:12:36;4.43;;;1.63;;
54919;SDS011;63804;53.120;8.764;2023-05-19T14:15:23;4.70;;;1.70;;
54919;SDS011;63804;53.120;8.764;2023-05-19T14:17:50;7.75;;;1.65;;
54919;SDS011;63804;53.120;8.764;2023-05-19T14:20:18;6.72;;;1.90;;
54919;SDS011;63804;53.120;8.764;2023-05-19T14:22:46;6.85;;;1.65;;
54919;SDS011;63804;53.120;8.764;2023-05-19T14:25:13;6.45;;;2.03;;
54919;SDS011;63804;53.120;8.764;2023-05-19T14:27:40;5.32;;;1.67;;
54919;SDS011;63804;53.120;8.764;2023-05-19T14:30:07;5.60;;;1.60;;
54919;SDS011;63804;53.120;8.764;2023-05-19T14:32:34;6.15;;;1.83;;
54919;SDS011;63804;53.120;8.764;2023-05-19T14:35:02;3.72;;;1.63;;
54919;SDS011;63804;53.120;8.764;2023-05-19T14:37:29;7.63;;;1.63;;
54919;SDS011;63804;53.120;8.764;2023-05-19T14:39:58;5.95;;;1.73;;
54919;SDS011;63804;53.120;8.764;2023-05-19T14:42:25;7.53;;;1.75;;
54919;SDS011;63804;53.120;8.764;2023-05-19T14:44:52;7.72;;;1.60;;
54919;SDS011;63804;53.120;8.764;2023-05-19T14:47:19;7.43;;;1.88;;
54919;SDS011;63804;53.120;8.764;2023-05-19T14:49:46;5.90;;;1.75;;
54919;SDS011;63804;53.120;8.764;2023-05-19T14:52:13;4.60;;;1.50;;
54919;SDS011;63804;53.120;8.764;2023-05-19T14:54:40;6.03;;;1.60;;
54919;SDS011;63804;53.120;8.764;2023-05-19T14:57:07;6.60;;;1.60;;
54919;SDS011;63804;53.120;8.764;2023-05-19T14:59:38;6.55;;;1.92;;
54919;SDS011;63804;53.120;8.764;2023-05-19T15:02:05;6.15;;;1.88;;
54919;SDS011;63804;53.120;8.764;2023-05-19T15:04:32;10.85;;;4.72;;
54919;SDS011;63804;53.120;8.764;2023-05-19T15:07:00;10.82;;;6.65;;
54919;SDS011;63804;53.120;8.764;2023-05-19T15:09:30;5.95;;;2.22;;
54919;SDS011;63804;53.120;8.764;2023-05-19T15:11:57;7.80;;;2.15;;
54919;SDS011;63804;53.120;8.764;2023-05-19T15:14:26;5.72;;;2.20;;
54919;SDS011;63804;53.120;8.764;2023-05-19T15:16:56;8.43;;;2.38;;
54919;SDS011;63804;53.120;8.764;2023-05-19T15:19:24;6.10;;;2.30;;